sensor_id;sensor_type;location;lat;lon;timestamp;pressure;altitude;pressure_sealevel;temperature;humidity
25430;BME280;13360;48.152;-1.788;2022-11-15T00:01:35;102062.94;;;12.28;100.00
25430;BME280;13360;48.152;-1.788;2022-11-15T00:04:03;102075.94;;;12.28;100.00
25430;BME280;13360;48.152;-1.788;2022-11-15T00:06:28;102077.63;;;12.24;100.00
25430;BME280;13360;48.152;-1.788;2022-11-15T00:08:54;102087.03;;;12.23;100.00
25430;BME280;13360;48.152;-1.788;2022-11-15T00:11:20;102077.91;;;12.22;100.00
25430;BME280;13360;48.152;-1.788;2022-11-15T00:13:45;102073.47;;;12.26;100.00
25430;BME280;13360;48.152;-1.788;2022-11-15T00:16:10;102068.75;;;12.21;100.00
25430;BME280;13360;48.152;-1.788;2022-11-15T00:18:36;102066.53;;;12.24;100.00
25430;BME280;13360;48.152;-1.788;2022-11-15T00:21:07;102053.53;;;12.29;100.00
25430;BME280;13360;48.152;-1.788;2022-11-15T00:23:34;102018.34;;;12.19;100.00
25430;BME280;13360;48.152;-1.788;2022-11-15T00:26:00;102025.00;;;12.29;100.00
25430;BME280;13360;48.152;-1.788;2022-11-15T00:28:26;102005.84;;;12.27;100.00
25430;BME280;13360;48.152;-1.788;2022-11-15T00:30:51;101994.78;;;12.27;100.00
25430;BME280;13360;48.152;-1.788;2022-11-15T00:33:17;101961.28;;;12.24;100.00
25430;BME280;13360;48.152;-1.788;2022-11-15T00:35:42;101952.13;;;12.28;100.00
25430;BME280;13360;48.152;-1.788;2022-11-15T00:38:07;101922.22;;;12.25;100.00
25430;BME280;13360;48.152;-1.788;2022-11-15T00:40:33;101869.03;;;12.18;100.00
25430;BME280;13360;48.152;-1.788;2022-11-15T00:42:58;101857.41;;;12.16;100.00
25430;BME280;13360;48.152;-1.788;2022-11-15T00:45:24;101858.50;;;12.25;100.00
25430;BME280;13360;48.152;-1.788;2022-11-15T00:47:50;101830.53;;;12.21;100.00
25430;BME280;13360;48.152;-1.788;2022-11-15T00:50:15;101809.75;;;12.24;100.00
25430;BME280;13360;48.152;-1.788;2022-11-15T00:52:41;101783.97;;;12.24;100.00
25430;BME280;13360;48.152;-1.788;2022-11-15T00:55:09;101790.63;;;12.28;100.00
25430;BME280;13360;48.152;-1.788;2022-11-15T00:57:38;101776.78;;;12.33;100.00
25430;BME280;13360;48.152;-1.788;2022-11-15T01:00:04;101749.63;;;12.30;100.00
25430;BME280;13360;48.152;-1.788;2022-11-15T01:02:30;101757.38;;;12.33;100.00
25430;BME280;13360;48.152;-1.788;2022-11-15T01:04:55;101739.38;;;12.30;100.00
25430;BME280;13360;48.152;-1.788;2022-11-15T01:07:20;101724.13;;;12.33;100.00
25430;BME280;13360;48.152;-1.788;2022-11-15T01:09:46;101722.72;;;12.35;100.00
25430;BME280;13360;48.152;-1.788;2022-11-15T01:12:11;101722.94;;;12.44;100.00
25430;BME280;13360;48.152;-1.788;2022-11-15T01:14:36;101704.41;;;12.39;100.00
25430;BME280;13360;48.152;-1.788;2022-11-15T01:17:02;101700.78;;;12.44;100.00
25430;BME280;13360;48.152;-1.788;2022-11-15T01:19:27;101675.31;;;12.42;100.00
25430;BME280;13360;48.152;-1.788;2022-11-15T01:21:52;101665.88;;;12.43;100.00
25430;BME280;13360;48.152;-1.788;2022-11-15T01:24:18;101663.41;;;12.41;100.00
25430;BME280;13360;48.152;-1.788;2022-11-15T01:26:43;101659.78;;;12.41;100.00
25430;BME280;13360;48.152;-1.788;2022-11-15T01:29:08;101662.00;;;12.44;100.00
25430;BME280;13360;48.152;-1.788;2022-11-15T01:31:35;101648.44;;;12.42;100.00
25430;BME280;13360;48.152;-1.788;2022-11-15T01:34:00;101652.81;;;12.48;100.00
25430;BME280;13360;48.152;-1.788;2022-11-15T01:36:25;101648.03;;;12.59;100.00
25430;BME280;13360;48.152;-1.788;2022-11-15T01:38:55;101628.94;;;12.58;100.00
25430;BME280;13360;48.152;-1.788;2022-11-15T01:41:24;101614.78;;;12.59;100.00
25430;BME280;13360;48.152;-1.788;2022-11-15T01:43:53;101613.09;;;12.63;100.00
25430;BME280;13360;48.152;-1.788;2022-11-15T01:46:27;101608.06;;;12.65;100.00
25430;BME280;13360;48.152;-1.788;2022-11-15T01:48:57;101605.53;;;12.69;100.00
25430;BME280;13360;48.152;-1.788;2022-11-15T01:51:25;101583.13;;;12.65;100.00
25430;BME280;13360;48.152;-1.788;2022-11-15T01:53:55;101584.75;;;12.71;100.00
25430;BME280;13360;48.152;-1.788;2022-11-15T01:56:25;101553.72;;;12.69;100.00
25430;BME280;13360;48.152;-1.788;2022-11-15T01:58:55;101553.16;;;12.72;100.00
25430;BME280;13360;48.152;-1.788;2022-11-15T02:01:22;101522.97;;;12.71;100.00
25430;BME280;13360;48.152;-1.788;2022-11-15T02:03:54;101528.75;;;12.74;100.00
25430;BME280;13360;48.152;-1.788;2022-11-15T02:06:22;101504.91;;;12.73;100.00
25430;BME280;13360;48.152;-1.788;2022-11-15T02:08:47;101505.16;;;12.77;100.00
25430;BME280;13360;48.152;-1.788;2022-11-15T02:11:14;101480.50;;;12.75;100.00
25430;BME280;13360;48.152;-1.788;2022-11-15T02:13:39;101491.88;;;12.74;100.00
25430;BME280;13360;48.152;-1.788;2022-11-15T02:18:46;101490.16;;;12.78;100.00
25430;BME280;13360;48.152;-1.788;2022-11-15T02:21:47;101484.25;;;12.85;100.00
25430;BME280;13360;48.152;-1.788;2022-11-15T02:24:41;101442.75;;;12.79;100.00
25430;BME280;13360;48.152;-1.788;2022-11-15T02:32:50;101416.44;;;12.77;100.00
25430;BME280;13360;48.152;-1.788;2022-11-15T02:35:52;101407.31;;;12.76;100.00
25430;BME280;13360;48.152;-1.788;2022-11-15T02:41:11;101413.59;;;12.82;100.00
25430;BME280;13360;48.152;-1.788;2022-11-15T02:46:27;101404.75;;;12.80;100.00
25430;BME280;13360;48.152;-1.788;2022-11-15T02:49:14;101420.19;;;12.86;100.00
25430;BME280;13360;48.152;-1.788;2022-11-15T02:51:40;101396.16;;;12.81;100.00
25430;BME280;13360;48.152;-1.788;2022-11-15T02:54:12;101402.16;;;12.89;100.00
25430;BME280;13360;48.152;-1.788;2022-11-15T02:56:38;101384.47;;;12.85;100.00
25430;BME280;13360;48.152;-1.788;2022-11-15T03:07:05;101477.81;;;12.89;100.00
25430;BME280;13360;48.152;-1.788;2022-11-15T03:12:14;101475.88;;;12.90;100.00
25430;BME280;13360;48.152;-1.788;2022-11-15T03:14:56;101514.69;;;12.90;100.00
25430;BME280;13360;48.152;-1.788;2022-11-15T03:17:30;101526.59;;;12.95;100.00
25430;BME280;13360;48.152;-1.788;2022-11-15T03:20:01;101547.94;;;12.95;100.00
25430;BME280;13360;48.152;-1.788;2022-11-15T03:22:32;101590.31;;;13.00;100.00
25430;BME280;13360;48.152;-1.788;2022-11-15T03:25:03;101595.63;;;12.97;100.00
25430;BME280;13360;48.152;-1.788;2022-11-15T03:27:39;101594.56;;;12.88;100.00
25430;BME280;13360;48.152;-1.788;2022-11-15T03:30:08;101633.91;;;12.95;100.00
25430;BME280;13360;48.152;-1.788;2022-11-15T03:32:41;101636.16;;;12.88;100.00
25430;BME280;13360;48.152;-1.788;2022-11-15T03:35:12;101661.63;;;12.95;100.00
25430;BME280;13360;48.152;-1.788;2022-11-15T03:38:19;101680.22;;;12.94;100.00
25430;BME280;13360;48.152;-1.788;2022-11-15T03:41:10;101690.47;;;12.94;100.00
25430;BME280;13360;48.152;-1.788;2022-11-15T03:46:24;101731.25;;;12.93;100.00
25430;BME280;13360;48.152;-1.788;2022-11-15T03:48:54;101741.50;;;12.93;100.00
25430;BME280;13360;48.152;-1.788;2022-11-15T03:51:22;101759.84;;;12.83;100.00
25430;BME280;13360;48.152;-1.788;2022-11-15T03:53:48;101765.44;;;12.78;100.00
25430;BME280;13360;48.152;-1.788;2022-11-15T03:56:13;101779.50;;;12.87;100.00
25430;BME280;13360;48.152;-1.788;2022-11-15T03:58:38;101779.81;;;12.86;100.00
25430;BME280;13360;48.152;-1.788;2022-11-15T04:01:04;101792.81;;;12.90;100.00
25430;BME280;13360;48.152;-1.788;2022-11-15T04:03:29;101796.97;;;12.88;100.00
25430;BME280;13360;48.152;-1.788;2022-11-15T04:05:54;101810.88;;;12.82;100.00
25430;BME280;13360;48.152;-1.788;2022-11-15T04:08:20;101809.75;;;12.83;100.00
25430;BME280;13360;48.152;-1.788;2022-11-15T04:10:45;101829.50;;;12.77;100.00
25430;BME280;13360;48.152;-1.788;2022-11-15T04:13:13;101843.09;;;12.73;100.00
25430;BME280;13360;48.152;-1.788;2022-11-15T04:15:38;101858.59;;;12.79;100.00
25430;BME280;13360;48.152;-1.788;2022-11-15T04:18:03;101874.66;;;12.82;100.00
25430;BME280;13360;48.152;-1.788;2022-11-15T04:20:30;101889.34;;;12.83;100.00
25430;BME280;13360;48.152;-1.788;2022-11-15T04:23:22;101902.38;;;12.82;100.00
25430;BME280;13360;48.152;-1.788;2022-11-15T04:26:16;101907.41;;;12.75;100.00
25430;BME280;13360;48.152;-1.788;2022-11-15T04:28:43;101938.47;;;12.67;100.00
25430;BME280;13360;48.152;-1.788;2022-11-15T04:31:28;101975.03;;;12.79;100.00
25430;BME280;13360;48.152;-1.788;2022-11-15T04:33:53;101988.63;;;12.81;100.00
25430;BME280;13360;48.152;-1.788;2022-11-15T04:36:19;102008.03;;;12.76;100.00
25430;BME280;13360;48.152;-1.788;2022-11-15T04:39:04;102051.56;;;12.75;100.00
25430;BME280;13360;48.152;-1.788;2022-11-15T04:41:29;102064.59;;;12.75;100.00
25430;BME280;13360;48.152;-1.788;2022-11-15T04:43:55;102082.91;;;12.71;100.00
25430;BME280;13360;48.152;-1.788;2022-11-15T04:46:21;102100.38;;;12.71;100.00
25430;BME280;13360;48.152;-1.788;2022-11-15T04:48:47;102125.03;;;12.73;100.00
25430;BME280;13360;48.152;-1.788;2022-11-15T04:51:12;102151.09;;;12.72;100.00
25430;BME280;13360;48.152;-1.788;2022-11-15T04:53:38;102187.69;;;12.74;100.00
25430;BME280;13360;48.152;-1.788;2022-11-15T04:56:03;102205.72;;;12.71;100.00
25430;BME280;13360;48.152;-1.788;2022-11-15T04:58:29;102235.06;;;12.62;100.00
25430;BME280;13360;48.152;-1.788;2022-11-15T05:00:54;102258.63;;;12.65;100.00
25430;BME280;13360;48.152;-1.788;2022-11-15T05:03:19;102290.53;;;12.67;100.00
25430;BME280;13360;48.152;-1.788;2022-11-15T05:06:03;102325.47;;;12.68;100.00
25430;BME280;13360;48.152;-1.788;2022-11-15T05:08:28;102333.19;;;12.61;100.00
25430;BME280;13360;48.152;-1.788;2022-11-15T05:10:54;102356.47;;;12.60;100.00
25430;BME280;13360;48.152;-1.788;2022-11-15T05:13:19;102386.44;;;12.63;100.00
25430;BME280;13360;48.152;-1.788;2022-11-15T05:15:44;102420.81;;;12.67;100.00
25430;BME280;13360;48.152;-1.788;2022-11-15T05:18:11;102439.44;;;12.72;100.00
25430;BME280;13360;48.152;-1.788;2022-11-15T05:20:36;102447.16;;;12.65;100.00
25430;BME280;13360;48.152;-1.788;2022-11-15T05:23:01;102464.06;;;12.63;100.00
25430;BME280;13360;48.152;-1.788;2022-11-15T05:25:27;102482.06;;;12.61;100.00
25430;BME280;13360;48.152;-1.788;2022-11-15T05:27:53;102504.47;;;12.54;100.00
25430;BME280;13360;48.152;-1.788;2022-11-15T05:30:18;102536.94;;;12.59;100.00
25430;BME280;13360;48.152;-1.788;2022-11-15T05:32:44;102544.41;;;12.58;100.00
25430;BME280;13360;48.152;-1.788;2022-11-15T05:35:16;102559.84;;;12.49;100.00
25430;BME280;13360;48.152;-1.788;2022-11-15T05:37:43;102577.59;;;12.48;100.00
25430;BME280;13360;48.152;-1.788;2022-11-15T05:40:09;102607.25;;;12.47;100.00
25430;BME280;13360;48.152;-1.788;2022-11-15T05:42:34;102657.25;;;12.58;100.00
25430;BME280;13360;48.152;-1.788;2022-11-15T05:45:02;102663.34;;;12.60;100.00
25430;BME280;13360;48.152;-1.788;2022-11-15T05:47:29;102680.53;;;12.57;100.00
25430;BME280;13360;48.152;-1.788;2022-11-15T05:49:56;102711.28;;;12.55;100.00
25430;BME280;13360;48.152;-1.788;2022-11-15T05:52:25;102727.91;;;12.55;100.00
25430;BME280;13360;48.152;-1.788;2022-11-15T05:54:52;102749.03;;;12.61;100.00
25430;BME280;13360;48.152;-1.788;2022-11-15T05:57:18;102760.06;;;12.56;100.00
25430;BME280;13360;48.152;-1.788;2022-11-15T05:59:43;102755.63;;;12.55;100.00
25430;BME280;13360;48.152;-1.788;2022-11-15T06:02:10;102817.16;;;12.52;100.00
25430;BME280;13360;48.152;-1.788;2022-11-15T06:04:35;102825.72;;;12.50;100.00
25430;BME280;13360;48.152;-1.788;2022-11-15T06:07:01;102872.13;;;12.60;100.00
25430;BME280;13360;48.152;-1.788;2022-11-15T06:09:26;102875.63;;;12.50;100.00
25430;BME280;13360;48.152;-1.788;2022-11-15T06:11:52;102901.97;;;12.53;100.00
25430;BME280;13360;48.152;-1.788;2022-11-15T06:14:17;102940.66;;;12.65;100.00
25430;BME280;13360;48.152;-1.788;2022-11-15T06:16:43;102945.09;;;12.66;100.00
25430;BME280;13360;48.152;-1.788;2022-11-15T06:19:08;102959.53;;;12.68;100.00
25430;BME280;13360;48.152;-1.788;2022-11-15T06:21:34;102977.00;;;12.68;100.00
25430;BME280;13360;48.152;-1.788;2022-11-15T06:23:59;102960.78;;;12.55;100.00
25430;BME280;13360;48.152;-1.788;2022-11-15T06:26:24;102985.47;;;12.57;100.00
25430;BME280;13360;48.152;-1.788;2022-11-15T06:28:50;103011.84;;;12.59;100.00
25430;BME280;13360;48.152;-1.788;2022-11-15T06:31:15;103020.22;;;12.64;100.00
25430;BME280;13360;48.152;-1.788;2022-11-15T06:33:40;103028.53;;;12.64;100.00
25430;BME280;13360;48.152;-1.788;2022-11-15T06:36:08;103031.75;;;12.56;100.00
25430;BME280;13360;48.152;-1.788;2022-11-15T06:38:34;103057.03;;;12.60;100.00
25430;BME280;13360;48.152;-1.788;2022-11-15T06:41:07;103056.38;;;12.52;100.00
25430;BME280;13360;48.152;-1.788;2022-11-15T06:43:34;103060.72;;;12.48;100.00
25430;BME280;13360;48.152;-1.788;2022-11-15T06:46:00;103081.59;;;12.51;100.00
25430;BME280;13360;48.152;-1.788;2022-11-15T06:48:26;103105.53;;;12.57;100.00
25430;BME280;13360;48.152;-1.788;2022-11-15T06:50:57;103118.78;;;12.55;100.00
25430;BME280;13360;48.152;-1.788;2022-11-15T06:53:23;103125.19;;;12.56;100.00
25430;BME280;13360;48.152;-1.788;2022-11-15T06:55:49;103136.00;;;12.57;100.00
25430;BME280;13360;48.152;-1.788;2022-11-15T06:58:14;103146.59;;;12.60;100.00
25430;BME280;13360;48.152;-1.788;2022-11-15T07:00:40;103168.28;;;12.63;100.00
25430;BME280;13360;48.152;-1.788;2022-11-15T07:03:06;103164.31;;;12.59;100.00
25430;BME280;13360;48.152;-1.788;2022-11-15T07:05:31;103165.41;;;12.58;100.00
25430;BME280;13360;48.152;-1.788;2022-11-15T07:07:57;103203.72;;;12.61;100.00
25430;BME280;13360;48.152;-1.788;2022-11-15T07:10:24;103198.44;;;12.60;100.00
25430;BME280;13360;48.152;-1.788;2022-11-15T07:12:51;103234.75;;;12.75;100.00
25430;BME280;13360;48.152;-1.788;2022-11-15T07:15:17;103241.72;;;12.77;100.00
25430;BME280;13360;48.152;-1.788;2022-11-15T07:17:43;103262.41;;;12.87;100.00
25430;BME280;13360;48.152;-1.788;2022-11-15T07:20:09;103259.53;;;12.81;100.00
25430;BME280;13360;48.152;-1.788;2022-11-15T07:22:34;103256.00;;;12.86;100.00
25430;BME280;13360;48.152;-1.788;2022-11-15T07:25:00;103266.69;;;12.77;100.00
25430;BME280;13360;48.152;-1.788;2022-11-15T07:27:25;103258.88;;;12.74;100.00
25430;BME280;13360;48.152;-1.788;2022-11-15T07:29:50;103294.44;;;12.77;100.00
25430;BME280;13360;48.152;-1.788;2022-11-15T07:32:16;103312.50;;;12.80;100.00
25430;BME280;13360;48.152;-1.788;2022-11-15T07:34:41;103337.56;;;12.85;100.00
25430;BME280;13360;48.152;-1.788;2022-11-15T07:37:06;103339.72;;;12.83;100.00
25430;BME280;13360;48.152;-1.788;2022-11-15T07:39:32;103360.09;;;12.89;100.00
25430;BME280;13360;48.152;-1.788;2022-11-15T07:41:57;103353.69;;;12.88;100.00
25430;BME280;13360;48.152;-1.788;2022-11-15T07:44:48;103395.75;;;12.97;100.00
25430;BME280;13360;48.152;-1.788;2022-11-15T07:47:14;103384.91;;;12.95;100.00
25430;BME280;13360;48.152;-1.788;2022-11-15T07:49:39;103406.34;;;13.00;100.00
25430;BME280;13360;48.152;-1.788;2022-11-15T07:52:05;103428.06;;;13.03;100.00
25430;BME280;13360;48.152;-1.788;2022-11-15T07:54:30;103424.44;;;13.02;100.00
25430;BME280;13360;48.152;-1.788;2022-11-15T07:56:55;103451.44;;;13.07;100.00
25430;BME280;13360;48.152;-1.788;2022-11-15T07:59:21;103449.41;;;13.02;100.00
25430;BME280;13360;48.152;-1.788;2022-11-15T08:01:46;103451.09;;;13.03;100.00
25430;BME280;13360;48.152;-1.788;2022-11-15T08:04:12;103470.63;;;13.08;100.00
25430;BME280;13360;48.152;-1.788;2022-11-15T08:06:37;103481.13;;;13.06;100.00
25430;BME280;13360;48.152;-1.788;2022-11-15T08:09:03;103496.69;;;13.07;100.00
25430;BME280;13360;48.152;-1.788;2022-11-15T08:11:28;103508.88;;;13.06;100.00
25430;BME280;13360;48.152;-1.788;2022-11-15T08:13:54;103493.06;;;13.07;100.00
25430;BME280;13360;48.152;-1.788;2022-11-15T08:16:19;103500.88;;;13.10;100.00
25430;BME280;13360;48.152;-1.788;2022-11-15T08:18:45;103573.03;;;13.10;100.00
25430;BME280;13360;48.152;-1.788;2022-11-15T08:21:13;103647.13;;;13.09;100.00
25430;BME280;13360;48.152;-1.788;2022-11-15T08:23:39;103647.63;;;13.06;100.00
25430;BME280;13360;48.152;-1.788;2022-11-15T08:26:05;103665.72;;;13.09;100.00
25430;BME280;13360;48.152;-1.788;2022-11-15T08:28:31;103680.81;;;13.13;100.00
25430;BME280;13360;48.152;-1.788;2022-11-15T08:30:57;103704.47;;;13.16;100.00
25430;BME280;13360;48.152;-1.788;2022-11-15T08:33:23;103714.47;;;13.17;100.00
25430;BME280;13360;48.152;-1.788;2022-11-15T08:35:48;103726.56;;;13.22;100.00
25430;BME280;13360;48.152;-1.788;2022-11-15T08:38:14;103733.31;;;13.26;100.00
25430;BME280;13360;48.152;-1.788;2022-11-15T08:40:40;103734.75;;;13.29;100.00
25430;BME280;13360;48.152;-1.788;2022-11-15T08:43:05;103733.66;;;13.30;100.00
25430;BME280;13360;48.152;-1.788;2022-11-15T08:45:31;103731.72;;;13.30;100.00
25430;BME280;13360;48.152;-1.788;2022-11-15T08:48:02;103735.75;;;13.34;100.00
25430;BME280;13360;48.152;-1.788;2022-11-15T08:50:28;103729.56;;;13.32;100.00
25430;BME280;13360;48.152;-1.788;2022-11-15T08:52:53;103718.25;;;13.34;100.00
25430;BME280;13360;48.152;-1.788;2022-11-15T08:55:19;103730.19;;;13.34;100.00
25430;BME280;13360;48.152;-1.788;2022-11-15T08:57:44;103719.69;;;13.36;100.00
25430;BME280;13360;48.152;-1.788;2022-11-15T09:00:10;103720.75;;;13.35;100.00
25430;BME280;13360;48.152;-1.788;2022-11-15T09:02:38;103705.56;;;13.38;100.00
25430;BME280;13360;48.152;-1.788;2022-11-15T09:05:04;103729.81;;;13.42;100.00
25430;BME280;13360;48.152;-1.788;2022-11-15T09:07:31;103728.72;;;13.43;100.00
25430;BME280;13360;48.152;-1.788;2022-11-15T09:09:57;103712.06;;;13.43;100.00
25430;BME280;13360;48.152;-1.788;2022-11-15T09:12:23;103714.59;;;13.45;100.00
25430;BME280;13360;48.152;-1.788;2022-11-15T09:14:48;103712.75;;;13.51;100.00
25430;BME280;13360;48.152;-1.788;2022-11-15T09:17:14;103702.13;;;13.48;100.00
25430;BME280;13360;48.152;-1.788;2022-11-15T09:19:39;103703.81;;;13.49;100.00
25430;BME280;13360;48.152;-1.788;2022-11-15T09:22:08;103701.41;;;13.52;100.00
25430;BME280;13360;48.152;-1.788;2022-11-15T09:24:34;103688.84;;;13.50;100.00
25430;BME280;13360;48.152;-1.788;2022-11-15T09:27:00;103690.91;;;13.54;100.00
25430;BME280;13360;48.152;-1.788;2022-11-15T09:29:25;103661.56;;;13.47;100.00
25430;BME280;13360;48.152;-1.788;2022-11-15T09:31:54;103670.38;;;13.55;100.00
25430;BME280;13360;48.152;-1.788;2022-11-15T09:34:19;103675.69;;;13.57;100.00
25430;BME280;13360;48.152;-1.788;2022-11-15T09:36:46;103653.09;;;13.53;100.00
25430;BME280;13360;48.152;-1.788;2022-11-15T09:39:11;103657.34;;;13.56;100.00
25430;BME280;13360;48.152;-1.788;2022-11-15T09:45:22;103655.50;;;13.61;100.00
25430;BME280;13360;48.152;-1.788;2022-11-15T09:49:58;103641.97;;;13.65;100.00
25430;BME280;13360;48.152;-1.788;2022-11-15T09:52:26;103630.25;;;13.63;100.00
25430;BME280;13360;48.152;-1.788;2022-11-15T09:54:53;103626.97;;;13.66;100.00
25430;BME280;13360;48.152;-1.788;2022-11-15T09:57:24;103621.25;;;13.72;100.00
25430;BME280;13360;48.152;-1.788;2022-11-15T10:05:15;103607.84;;;13.81;100.00
25430;BME280;13360;48.152;-1.788;2022-11-15T10:11:08;103594.53;;;13.83;100.00
25430;BME280;13360;48.152;-1.788;2022-11-15T10:13:37;103604.03;;;13.87;100.00
25430;BME280;13360;48.152;-1.788;2022-11-15T10:16:35;103602.38;;;13.86;100.00
25430;BME280;13360;48.152;-1.788;2022-11-15T10:22:00;103602.94;;;13.88;100.00
25430;BME280;13360;48.152;-1.788;2022-11-15T10:24:37;103628.59;;;14.07;100.00
25430;BME280;13360;48.152;-1.788;2022-11-15T10:27:10;103650.78;;;14.19;100.00
25430;BME280;13360;48.152;-1.788;2022-11-15T10:29:42;103659.78;;;14.26;100.00
25430;BME280;13360;48.152;-1.788;2022-11-15T10:32:10;103665.94;;;14.28;100.00
25430;BME280;13360;48.152;-1.788;2022-11-15T10:34:36;103655.91;;;14.27;100.00
25430;BME280;13360;48.152;-1.788;2022-11-15T10:37:01;103635.84;;;14.25;100.00
25430;BME280;13360;48.152;-1.788;2022-11-15T10:39:27;103624.16;;;14.23;100.00
25430;BME280;13360;48.152;-1.788;2022-11-15T10:41:53;103611.94;;;14.24;100.00
25430;BME280;13360;48.152;-1.788;2022-11-15T10:47:04;103614.78;;;14.29;100.00
25430;BME280;13360;48.152;-1.788;2022-11-15T10:49:31;103594.47;;;14.28;100.00
25430;BME280;13360;48.152;-1.788;2022-11-15T10:51:58;103583.94;;;14.30;100.00
25430;BME280;13360;48.152;-1.788;2022-11-15T10:56:55;103548.31;;;14.27;100.00
25430;BME280;13360;48.152;-1.788;2022-11-15T10:59:31;103522.06;;;14.18;100.00
25430;BME280;13360;48.152;-1.788;2022-11-15T11:01:59;103510.56;;;14.15;100.00
25430;BME280;13360;48.152;-1.788;2022-11-15T11:04:24;103507.78;;;14.15;100.00
25430;BME280;13360;48.152;-1.788;2022-11-15T11:06:51;103502.00;;;14.16;100.00
25430;BME280;13360;48.152;-1.788;2022-11-15T11:11:58;103500.06;;;14.17;100.00
25430;BME280;13360;48.152;-1.788;2022-11-15T11:14:27;103508.72;;;14.20;100.00
25430;BME280;13360;48.152;-1.788;2022-11-15T11:17:04;103512.94;;;14.23;100.00
25430;BME280;13360;48.152;-1.788;2022-11-15T11:19:52;103516.03;;;14.26;100.00
25430;BME280;13360;48.152;-1.788;2022-11-15T11:22:32;103520.25;;;14.29;100.00
25430;BME280;13360;48.152;-1.788;2022-11-15T11:27:43;103518.31;;;14.29;100.00
25430;BME280;13360;48.152;-1.788;2022-11-15T11:30:17;103511.66;;;14.30;100.00
25430;BME280;13360;48.152;-1.788;2022-11-15T11:35:39;103496.97;;;14.35;100.00
25430;BME280;13360;48.152;-1.788;2022-11-15T11:46:59;103369.59;;;14.32;100.00
25430;BME280;13360;48.152;-1.788;2022-11-15T11:49:50;103287.50;;;14.24;100.00
25430;BME280;13360;48.152;-1.788;2022-11-15T11:52:35;103221.03;;;14.23;100.00
25430;BME280;13360;48.152;-1.788;2022-11-15T11:55:16;103152.97;;;14.25;100.00
25430;BME280;13360;48.152;-1.788;2022-11-15T11:58:04;103104.06;;;14.29;100.00
25430;BME280;13360;48.152;-1.788;2022-11-15T12:00:38;103064.31;;;14.29;100.00
25430;BME280;13360;48.152;-1.788;2022-11-15T12:03:28;103009.53;;;14.29;100.00
25430;BME280;13360;48.152;-1.788;2022-11-15T12:06:05;102939.47;;;14.27;100.00
25430;BME280;13360;48.152;-1.788;2022-11-15T12:08:47;102892.53;;;14.31;100.00
25430;BME280;13360;48.152;-1.788;2022-11-15T12:11:41;102824.69;;;14.27;100.00
25430;BME280;13360;48.152;-1.788;2022-11-15T12:17:09;102752.69;;;14.30;100.00
25430;BME280;13360;48.152;-1.788;2022-11-15T12:19:36;102720.72;;;14.33;100.00
25430;BME280;13360;48.152;-1.788;2022-11-15T12:22:08;102674.03;;;14.30;100.00
25430;BME280;13360;48.152;-1.788;2022-11-15T12:24:52;102613.69;;;14.35;100.00
25430;BME280;13360;48.152;-1.788;2022-11-15T12:27:37;102566.19;;;14.37;100.00
25430;BME280;13360;48.152;-1.788;2022-11-15T12:30:08;102529.78;;;14.39;100.00
25430;BME280;13360;48.152;-1.788;2022-11-15T12:32:38;102486.66;;;14.41;100.00
25430;BME280;13360;48.152;-1.788;2022-11-15T12:35:06;102456.09;;;14.41;100.00
25430;BME280;13360;48.152;-1.788;2022-11-15T12:37:51;102420.53;;;14.43;100.00
25430;BME280;13360;48.152;-1.788;2022-11-15T12:42:59;102338.22;;;14.47;100.00
25430;BME280;13360;48.152;-1.788;2022-11-15T12:45:37;102305.41;;;14.49;100.00
25430;BME280;13360;48.152;-1.788;2022-11-15T12:50:53;102238.63;;;14.59;100.00
25430;BME280;13360;48.152;-1.788;2022-11-15T12:58:49;102130.63;;;14.72;100.00
25430;BME280;13360;48.152;-1.788;2022-11-15T13:06:50;101930.44;;;14.67;100.00
25430;BME280;13360;48.152;-1.788;2022-11-15T13:11:55;101805.16;;;14.77;100.00
25430;BME280;13360;48.152;-1.788;2022-11-15T13:17:02;101724.91;;;14.89;100.00
25430;BME280;13360;48.152;-1.788;2022-11-15T13:19:28;101670.94;;;14.90;100.00
25430;BME280;13360;48.152;-1.788;2022-11-15T13:21:54;101622.50;;;14.91;100.00
25430;BME280;13360;48.152;-1.788;2022-11-15T13:24:38;101608.81;;;14.94;100.00
25430;BME280;13360;48.152;-1.788;2022-11-15T13:27:15;101556.25;;;14.93;100.00
25430;BME280;13360;48.152;-1.788;2022-11-15T13:29:43;101514.34;;;14.89;100.00
25430;BME280;13360;48.152;-1.788;2022-11-15T13:32:15;101459.03;;;14.88;100.00
25430;BME280;13360;48.152;-1.788;2022-11-15T13:34:47;101440.88;;;14.77;100.00
25430;BME280;13360;48.152;-1.788;2022-11-15T13:39:48;101406.22;;;14.42;100.00
25430;BME280;13360;48.152;-1.788;2022-11-15T13:42:16;101447.75;;;14.52;100.00
25430;BME280;13360;48.152;-1.788;2022-11-15T13:44:59;101473.41;;;14.62;100.00
25430;BME280;13360;48.152;-1.788;2022-11-15T13:47:26;101501.94;;;14.68;100.00
25430;BME280;13360;48.152;-1.788;2022-11-15T13:49:52;101551.28;;;14.76;100.00
25430;BME280;13360;48.152;-1.788;2022-11-15T13:52:18;101611.47;;;14.86;100.00
25430;BME280;13360;48.152;-1.788;2022-11-15T13:57:14;101686.97;;;14.79;100.00
25430;BME280;13360;48.152;-1.788;2022-11-15T14:00:24;101693.94;;;14.77;100.00
25430;BME280;13360;48.152;-1.788;2022-11-15T14:02:50;101675.69;;;14.71;100.00
25430;BME280;13360;48.152;-1.788;2022-11-15T14:05:18;101644.34;;;14.65;100.00
25430;BME280;13360;48.152;-1.788;2022-11-15T14:07:56;101606.56;;;14.64;100.00
25430;BME280;13360;48.152;-1.788;2022-11-15T14:12:51;101497.97;;;14.55;100.00
25430;BME280;13360;48.152;-1.788;2022-11-15T14:15:26;101451.25;;;14.57;100.00
25430;BME280;13360;48.152;-1.788;2022-11-15T14:17:52;101422.94;;;14.55;100.00
25430;BME280;13360;48.152;-1.788;2022-11-15T14:20:31;101363.63;;;14.46;100.00